createdAt,value
2023-05-21T00:00:38.829Z,18.41
2023-05-21T00:01:40.812Z,18.41
2023-05-21T00:02:43.843Z,18.41
2023-05-21T00:03:46.249Z,18.40
2023-05-21T00:04:49.338Z,18.39
2023-05-21T00:05:51.350Z,18.38
2023-05-21T00:06:54.262Z,18.37
2023-05-21T00:07:56.172Z,18.37
2023-05-21T00:09:00.720Z,18.39
2023-05-21T00:10:02.670Z,18.39
2023-05-21T00:11:05.754Z,18.38
2023-05-21T00:12:08.584Z,18.39
2023-05-21T00:13:11.524Z,18.38
2023-05-21T00:14:13.486Z,18.40
2023-05-21T00:15:16.482Z,18.40
2023-05-21T00:16:18.522Z,18.42
2023-05-21T00:17:21.467Z,18.42
2023-05-21T00:18:25.351Z,18.42
2023-05-21T00:19:28.502Z,18.43
2023-05-21T00:20:32.353Z,18.43
2023-05-21T00:21:35.427Z,18.43
2023-05-21T00:22:37.418Z,18.42
2023-05-21T00:23:42.735Z,18.42
2023-05-21T00:24:47.009Z,18.41
2023-05-21T00:25:50.453Z,18.39
2023-05-21T00:26:53.353Z,18.39
2023-05-21T00:27:55.668Z,18.36
2023-05-21T00:28:58.700Z,18.35
2023-05-21T00:30:00.834Z,18.35
2023-05-21T00:31:03.965Z,18.34
2023-05-21T00:32:06.762Z,18.35
2023-05-21T00:33:10.432Z,18.31
2023-05-21T00:34:13.354Z,18.30
2023-05-21T00:35:16.452Z,18.30
2023-05-21T00:36:18.561Z,18.27
2023-05-21T00:37:21.806Z,18.24
2023-05-21T00:38:24.059Z,18.24
2023-05-21T00:39:26.966Z,18.23
2023-05-21T00:40:31.054Z,18.23
2023-05-21T00:41:35.370Z,18.23
2023-05-21T00:42:40.623Z,18.21
2023-05-21T00:43:44.659Z,18.21
2023-05-21T00:44:46.683Z,18.20
2023-05-21T00:45:49.664Z,18.20
2023-05-21T00:46:53.704Z,18.20
2023-05-21T00:47:57.007Z,18.19
2023-05-21T00:48:59.843Z,18.20
2023-05-21T00:50:03.913Z,18.19
2023-05-21T00:51:06.590Z,18.17
2023-05-21T00:52:09.506Z,18.16
2023-05-21T00:53:11.652Z,18.15
2023-05-21T00:54:14.889Z,18.16
2023-05-21T00:55:16.932Z,18.13
2023-05-21T00:56:23.903Z,18.13
2023-05-21T00:57:27.264Z,18.13
2023-05-21T00:58:31.114Z,18.12
2023-05-21T00:59:33.335Z,18.12
2023-05-21T01:00:37.427Z,18.10
2023-05-21T01:01:39.399Z,18.10
2023-05-21T01:02:44.259Z,18.09
2023-05-21T01:03:48.739Z,18.08
2023-05-21T01:04:52.855Z,18.07
2023-05-21T01:05:59.869Z,18.06
2023-05-21T01:07:02.983Z,18.04
2023-05-21T01:08:05.686Z,18.04
2023-05-21T01:09:09.260Z,18.03
2023-05-21T01:10:11.859Z,18.08
2023-05-21T01:11:15.703Z,18.03
2023-05-21T01:12:20.891Z,18.00
2023-05-21T01:13:24.540Z,17.99
2023-05-21T01:14:26.854Z,18.00
2023-05-21T01:15:30.386Z,17.99
2023-05-21T01:16:33.647Z,17.99
2023-05-21T01:17:36.799Z,17.99
2023-05-21T01:18:38.955Z,17.98
2023-05-21T01:19:44.435Z,17.97
2023-05-21T01:20:48.219Z,17.97
2023-05-21T01:21:53.875Z,17.97
2023-05-21T01:22:58.282Z,17.95
2023-05-21T01:24:02.181Z,17.94
2023-05-21T01:25:04.553Z,17.94
2023-05-21T01:26:07.513Z,17.94
2023-05-21T01:27:10.498Z,17.95
2023-05-21T01:28:13.556Z,17.95
2023-05-21T01:29:15.596Z,17.93
2023-05-21T01:30:19.822Z,17.94
2023-05-21T01:31:26.546Z,17.94
2023-05-21T01:32:35.960Z,17.92
2023-05-21T01:33:45.434Z,17.91
2023-05-21T01:34:56.916Z,17.92
2023-05-21T01:36:05.700Z,17.92
2023-05-21T01:37:15.579Z,17.91
2023-05-21T01:38:24.999Z,17.90
2023-05-21T01:39:34.278Z,17.90
2023-05-21T01:40:40.706Z,17.89
2023-05-21T01:41:45.992Z,17.90
2023-05-21T01:42:48.724Z,17.90
2023-05-21T01:43:55.359Z,17.89
2023-05-21T01:44:59.619Z,17.88
2023-05-21T01:46:03.660Z,17.87
2023-05-21T01:47:07.863Z,17.87
2023-05-21T01:48:13.187Z,17.86
2023-05-21T01:49:17.211Z,17.85
2023-05-21T01:50:20.502Z,17.84
2023-05-21T01:51:24.089Z,17.85
2023-05-21T01:52:26.969Z,17.84
2023-05-21T01:53:30.286Z,17.82
2023-05-21T01:54:33.237Z,17.81
2023-05-21T01:55:39.531Z,17.81
2023-05-21T01:56:43.056Z,17.80
2023-05-21T01:57:44.962Z,17.80
2023-05-21T01:58:50.094Z,17.79
2023-05-21T01:59:53.445Z,17.79
2023-05-21T02:00:57.028Z,17.76
2023-05-21T02:01:59.067Z,17.75
2023-05-21T02:03:02.316Z,17.74
2023-05-21T02:04:04.362Z,17.74
2023-05-21T02:05:09.229Z,17.74
2023-05-21T02:06:11.350Z,17.68
2023-05-21T02:07:15.358Z,17.67
2023-05-21T02:08:19.747Z,17.66
2023-05-21T02:09:23.985Z,17.67
2023-05-21T02:10:25.938Z,17.67
2023-05-21T02:11:29.184Z,17.66
2023-05-21T02:12:31.250Z,17.66
2023-05-21T02:13:34.211Z,17.65
2023-05-21T02:14:36.466Z,17.65
2023-05-21T02:15:40.334Z,17.64
2023-05-21T02:16:42.516Z,17.63
2023-05-21T02:17:46.152Z,17.62
2023-05-21T02:18:51.470Z,17.59
2023-05-21T02:19:54.442Z,17.64
2023-05-21T02:20:56.326Z,17.64
2023-05-21T02:21:59.200Z,17.64
2023-05-21T02:23:01.131Z,17.61
2023-05-21T02:24:04.145Z,17.61
2023-05-21T02:25:09.182Z,17.63
2023-05-21T02:26:12.231Z,17.63
2023-05-21T02:27:14.202Z,17.60
2023-05-21T02:28:17.082Z,17.59
2023-05-21T02:29:19.011Z,17.59
2023-05-21T02:30:22.296Z,17.58
2023-05-21T02:31:36.917Z,17.58
2023-05-21T02:32:43.311Z,17.57
2023-05-21T02:33:46.342Z,17.56
2023-05-21T02:34:48.662Z,17.55
2023-05-21T02:35:51.761Z,17.54
2023-05-21T02:36:54.615Z,17.53
2023-05-21T02:37:59.426Z,17.53
2023-05-21T02:39:01.767Z,17.52
2023-05-21T02:40:07.309Z,17.52
2023-05-21T02:41:11.278Z,17.51
2023-05-21T02:42:14.200Z,17.50
2023-05-21T02:43:16.469Z,17.50
2023-05-21T02:44:20.906Z,17.50
2023-05-21T02:45:22.867Z,17.50
2023-05-21T02:46:25.859Z,17.50
2023-05-21T02:47:28.509Z,17.48
2023-05-21T02:48:31.440Z,17.49
2023-05-21T02:49:33.456Z,17.46
2023-05-21T02:50:36.381Z,17.47
2023-05-21T02:51:38.235Z,17.47
2023-05-21T02:52:41.573Z,17.47
2023-05-21T02:53:43.492Z,17.47
2023-05-21T02:54:46.511Z,17.47
2023-05-21T02:55:48.716Z,17.47
2023-05-21T02:56:53.013Z,17.46
2023-05-21T02:57:54.993Z,17.47
2023-05-21T02:58:57.979Z,17.48
2023-05-21T02:59:59.867Z,17.47
2023-05-21T03:01:03.108Z,17.49
2023-05-21T03:02:05.510Z,17.47
2023-05-21T03:03:08.713Z,17.47
2023-05-21T03:04:13.659Z,17.47
2023-05-21T03:05:16.701Z,17.48
2023-05-21T03:06:19.899Z,17.48
2023-05-21T03:07:24.348Z,17.48
2023-05-21T03:08:26.636Z,17.47
2023-05-21T03:09:29.558Z,17.46
2023-05-21T03:10:32.718Z,17.45
2023-05-21T03:11:35.724Z,17.44
2023-05-21T03:12:39.293Z,17.43
2023-05-21T03:13:42.755Z,17.42
2023-05-21T03:14:46.363Z,17.42
2023-05-21T03:15:49.938Z,17.42
2023-05-21T03:16:51.942Z,17.42
2023-05-21T03:17:55.325Z,17.43
2023-05-21T03:18:58.615Z,17.42
2023-05-21T03:20:01.606Z,17.42
2023-05-21T03:21:04.418Z,17.42
2023-05-21T03:22:07.826Z,17.40
2023-05-21T03:23:16.197Z,17.40
2023-05-21T03:24:19.969Z,17.40
2023-05-21T03:25:25.153Z,17.40
2023-05-21T03:26:29.704Z,17.38
2023-05-21T03:27:32.705Z,17.39
2023-05-21T03:28:41.683Z,17.40
2023-05-21T03:29:43.814Z,17.39
2023-05-21T03:30:47.307Z,17.38
2023-05-21T03:32:08.315Z,17.37
2023-05-21T03:33:11.940Z,17.38
2023-05-21T03:34:14.345Z,17.38
2023-05-21T03:35:17.270Z,17.39
2023-05-21T03:36:20.893Z,17.38
2023-05-21T03:37:22.826Z,17.38
2023-05-21T03:38:26.251Z,17.37
2023-05-21T03:39:29.511Z,17.36
2023-05-21T03:40:33.209Z,17.36
2023-05-21T03:41:35.650Z,17.36
2023-05-21T03:42:45.401Z,17.37
2023-05-21T03:43:53.601Z,17.35
2023-05-21T03:44:59.114Z,17.34
2023-05-21T03:46:24.290Z,17.33
2023-05-21T03:47:36.180Z,17.31
2023-05-21T03:48:40.503Z,17.30
2023-05-21T03:49:45.700Z,17.32
2023-05-21T03:50:47.661Z,17.30
2023-05-21T03:51:50.897Z,17.31
2023-05-21T03:52:55.037Z,17.29
2023-05-21T03:53:58.775Z,17.28
2023-05-21T03:55:01.461Z,17.27
2023-05-21T03:56:05.471Z,17.28
2023-05-21T03:57:07.865Z,17.27
2023-05-21T03:58:11.804Z,17.27
2023-05-21T03:59:15.408Z,17.28
2023-05-21T04:00:20.255Z,17.28
2023-05-21T04:01:22.890Z,17.27
2023-05-21T04:02:28.017Z,17.27
2023-05-21T04:03:30.294Z,17.28
2023-05-21T04:04:34.647Z,17.29
2023-05-21T04:05:36.977Z,17.29
2023-05-21T04:06:42.313Z,17.29
2023-05-21T04:07:47.268Z,17.29
2023-05-21T04:08:49.226Z,17.29
2023-05-21T04:09:52.198Z,17.29
2023-05-21T04:10:54.269Z,17.29
2023-05-21T04:11:57.776Z,17.28
2023-05-21T04:12:59.658Z,17.28
2023-05-21T04:14:02.878Z,17.27
2023-05-21T04:15:07.678Z,17.26
2023-05-21T04:16:14.687Z,17.25
2023-05-21T04:17:17.115Z,17.24
2023-05-21T04:18:23.018Z,17.23
2023-05-21T04:19:25.038Z,17.22
2023-05-21T04:20:27.986Z,17.20
2023-05-21T04:21:32.259Z,17.21
2023-05-21T04:22:35.312Z,17.19
2023-05-21T04:23:38.620Z,17.19
2023-05-21T04:24:48.817Z,17.20
2023-05-21T04:25:59.276Z,17.19
2023-05-21T04:27:01.235Z,17.19
2023-05-21T04:28:06.355Z,17.19
2023-05-21T04:29:08.697Z,17.19
2023-05-21T04:30:13.789Z,17.21
2023-05-21T04:31:16.231Z,17.22
2023-05-21T04:32:19.304Z,17.21
2023-05-21T04:33:21.195Z,17.20
2023-05-21T04:34:24.791Z,17.26
2023-05-21T04:35:27.781Z,17.20
2023-05-21T04:36:30.177Z,17.19
2023-05-21T04:37:35.072Z,17.17
2023-05-21T04:38:38.266Z,17.18
2023-05-21T04:39:42.456Z,17.17
2023-05-21T04:40:44.354Z,17.17
2023-05-21T04:41:48.435Z,17.17
2023-05-21T04:42:50.857Z,17.17
2023-05-21T04:43:56.091Z,17.16
2023-05-21T04:45:02.549Z,17.16
2023-05-21T04:46:09.785Z,17.16
2023-05-21T04:47:12.397Z,17.17
2023-05-21T04:48:15.864Z,17.16
2023-05-21T04:49:17.842Z,17.16
2023-05-21T04:50:21.403Z,17.15
2023-05-21T04:51:24.902Z,17.16
2023-05-21T04:52:28.025Z,17.14
2023-05-21T04:53:29.917Z,17.14
2023-05-21T04:54:32.824Z,17.16
2023-05-21T04:55:39.568Z,17.16
2023-05-21T04:56:42.506Z,17.17
2023-05-21T04:57:44.441Z,17.18
2023-05-21T04:58:47.948Z,17.18
2023-05-21T04:59:50.381Z,17.18
2023-05-21T05:00:53.855Z,17.18
2023-05-21T05:01:57.208Z,17.18
2023-05-21T05:03:00.311Z,17.19
2023-05-21T05:04:02.353Z,17.19
2023-05-21T05:05:06.558Z,17.20
2023-05-21T05:06:08.553Z,17.20
2023-05-21T05:07:12.120Z,17.21
2023-05-21T05:08:16.080Z,17.23
2023-05-21T05:09:21.541Z,17.25
2023-05-21T05:10:23.427Z,17.26
2023-05-21T05:11:27.077Z,17.27
2023-05-21T05:12:29.340Z,17.27
2023-05-21T05:13:32.284Z,17.28
2023-05-21T05:14:34.236Z,17.28
2023-05-21T05:15:37.381Z,17.27
2023-05-21T05:16:39.640Z,17.27
2023-05-21T05:17:45.075Z,17.26
2023-05-21T05:18:48.408Z,17.27
2023-05-21T05:19:51.517Z,17.25
2023-05-21T05:20:53.460Z,17.24
2023-05-21T05:21:56.645Z,17.23
2023-05-21T05:22:58.803Z,17.24
2023-05-21T05:24:01.870Z,17.24
2023-05-21T05:25:07.629Z,17.25
2023-05-21T05:26:11.803Z,17.25
2023-05-21T05:27:13.728Z,17.27
2023-05-21T05:28:16.690Z,17.29
2023-05-21T05:29:18.650Z,17.31
2023-05-21T05:30:22.278Z,17.32
2023-05-21T05:31:24.421Z,17.34
2023-05-21T05:32:28.814Z,17.35
2023-05-21T05:33:32.500Z,17.36
2023-05-21T05:34:35.424Z,17.37
2023-05-21T05:35:37.657Z,17.37
2023-05-21T05:36:40.846Z,17.31
2023-05-21T05:37:43.306Z,17.31
2023-05-21T05:38:46.189Z,17.30
2023-05-21T05:39:48.382Z,17.33
2023-05-21T05:40:52.253Z,17.34
2023-05-21T05:41:54.412Z,17.36
2023-05-21T05:42:57.688Z,17.36
2023-05-21T05:43:59.617Z,17.38
2023-05-21T05:45:06.715Z,17.38
2023-05-21T05:46:09.495Z,17.39
2023-05-21T05:47:12.715Z,17.40
2023-05-21T05:48:15.260Z,17.42
2023-05-21T05:49:19.545Z,17.42
2023-05-21T05:50:21.794Z,17.33
2023-05-21T05:51:24.676Z,17.37
2023-05-21T05:52:26.658Z,17.42
2023-05-21T05:53:30.108Z,17.45
2023-05-21T05:54:32.128Z,17.47
2023-05-21T05:55:35.456Z,17.49
2023-05-21T05:56:38.019Z,17.52
2023-05-21T05:57:42.661Z,17.49
2023-05-21T05:58:49.020Z,17.45
2023-05-21T05:59:53.517Z,17.46
2023-05-21T06:00:55.533Z,17.47
2023-05-21T06:01:58.550Z,17.48
2023-05-21T06:03:01.989Z,17.49
2023-05-21T06:04:05.253Z,17.45
2023-05-21T06:05:10.026Z,17.51
2023-05-21T06:06:13.263Z,17.48
2023-05-21T06:07:15.311Z,17.44
2023-05-21T06:08:18.229Z,17.45
2023-05-21T06:09:22.124Z,17.40
2023-05-21T06:10:25.276Z,17.43
2023-05-21T06:11:27.777Z,17.44
2023-05-21T06:12:30.794Z,17.43
2023-05-21T06:13:32.896Z,17.47
2023-05-21T06:14:36.026Z,17.49
2023-05-21T06:15:39.382Z,17.50
2023-05-21T06:16:42.409Z,17.52
2023-05-21T06:17:44.494Z,17.48
2023-05-21T06:18:51.714Z,17.51
2023-05-21T06:19:53.927Z,17.51
2023-05-21T06:20:58.758Z,17.51
2023-05-21T06:22:01.811Z,17.54
2023-05-21T06:23:04.091Z,17.52
2023-05-21T06:24:07.720Z,17.51
2023-05-21T06:25:10.932Z,17.46
2023-05-21T06:26:14.553Z,17.44
2023-05-21T06:27:16.521Z,17.42
2023-05-21T06:28:20.068Z,17.46
2023-05-21T06:29:23.637Z,17.49
2023-05-21T06:30:26.808Z,17.46
2023-05-21T06:31:29.075Z,17.49
2023-05-21T06:32:32.184Z,17.49
2023-05-21T06:33:34.460Z,17.50
2023-05-21T06:34:37.622Z,17.45
2023-05-21T06:35:40.235Z,17.50
2023-05-21T06:36:46.794Z,17.53
2023-05-21T06:37:48.829Z,17.56
2023-05-21T06:38:52.222Z,17.55
2023-05-21T06:39:54.319Z,17.58
2023-05-21T06:40:58.400Z,17.59
2023-05-21T06:42:22.515Z,17.54
2023-05-21T06:43:38.123Z,17.57
2023-05-21T06:45:16.207Z,17.60
2023-05-21T06:46:19.840Z,17.61
2023-05-21T06:47:22.917Z,17.64
2023-05-21T06:48:24.944Z,17.65
2023-05-21T06:49:27.941Z,17.60
2023-05-21T06:50:29.957Z,17.64
2023-05-21T06:51:32.865Z,17.66
2023-05-21T06:52:36.281Z,17.69
2023-05-21T06:53:39.829Z,17.71
2023-05-21T06:54:42.732Z,17.73
2023-05-21T06:55:44.921Z,17.73
2023-05-21T06:56:58.167Z,17.75
2023-05-21T06:58:00.066Z,17.74
2023-05-21T06:59:03.106Z,17.76
2023-05-21T07:00:06.172Z,17.77
2023-05-21T07:01:11.733Z,17.81
2023-05-21T07:02:13.813Z,17.81
2023-05-21T07:03:17.184Z,17.85
2023-05-21T07:04:19.341Z,17.79
2023-05-21T07:05:22.282Z,17.81
2023-05-21T07:06:24.388Z,17.80
2023-05-21T07:07:28.577Z,17.84
2023-05-21T07:08:32.700Z,17.85
2023-05-21T07:09:35.943Z,17.86
2023-05-21T07:10:38.025Z,17.90
2023-05-21T07:11:41.806Z,17.88
2023-05-21T07:12:44.788Z,17.92
2023-05-21T07:13:47.839Z,17.94
2023-05-21T07:14:50.325Z,17.98
2023-05-21T07:15:53.376Z,17.99
2023-05-21T07:16:55.605Z,18.00
2023-05-21T07:17:58.684Z,18.03
2023-05-21T07:19:01.231Z,18.05
2023-05-21T07:20:06.659Z,18.05
2023-05-21T07:21:08.779Z,18.07
2023-05-21T07:22:13.315Z,18.06
2023-05-21T07:23:15.407Z,18.05
2023-05-21T07:24:19.825Z,18.05
2023-05-21T07:25:21.820Z,18.08
2023-05-21T07:26:26.326Z,18.10
2023-05-21T07:27:28.293Z,18.13
2023-05-21T07:28:31.865Z,18.17
2023-05-21T07:29:35.170Z,18.20
2023-05-21T07:30:37.175Z,18.22
2023-05-21T07:31:44.898Z,18.21
2023-05-21T07:32:46.859Z,18.27
2023-05-21T07:33:49.853Z,18.26
2023-05-21T07:34:54.423Z,18.30
2023-05-21T07:35:59.604Z,18.31
2023-05-21T07:37:02.006Z,18.36
2023-05-21T07:38:04.931Z,18.42
2023-05-21T07:39:07.199Z,18.44
2023-05-21T07:40:13.097Z,18.47
2023-05-21T07:41:17.093Z,18.48
2023-05-21T07:42:21.787Z,18.53
2023-05-21T07:43:24.279Z,18.54
2023-05-21T07:44:27.165Z,18.56
2023-05-21T07:45:29.131Z,18.56
2023-05-21T07:46:32.691Z,18.59
2023-05-21T07:47:34.841Z,18.60
2023-05-21T07:48:37.921Z,18.62
2023-05-21T07:49:40.521Z,18.66
2023-05-21T07:50:43.745Z,18.67
2023-05-21T07:51:46.254Z,18.72
2023-05-21T07:52:49.334Z,18.74
2023-05-21T07:53:53.192Z,18.78
2023-05-21T07:55:03.189Z,18.75
2023-05-21T07:56:09.833Z,18.84
2023-05-21T07:57:12.954Z,18.90
2023-05-21T07:58:26.956Z,18.95
2023-05-21T07:59:30.030Z,19.01
2023-05-21T08:00:43.909Z,19.05
2023-05-21T08:01:47.852Z,19.08
2023-05-21T08:02:49.860Z,19.11
2023-05-21T08:03:53.542Z,19.17
2023-05-21T08:04:55.789Z,19.24
2023-05-21T08:05:58.693Z,19.30
2023-05-21T08:07:00.619Z,19.37
2023-05-21T08:08:03.438Z,19.40
2023-05-21T08:09:06.845Z,19.39
2023-05-21T08:10:09.334Z,19.42
2023-05-21T08:11:13.642Z,19.54
2023-05-21T08:12:16.148Z,19.57
2023-05-21T08:13:20.207Z,19.60
2023-05-21T08:14:23.347Z,19.57
2023-05-21T08:15:26.612Z,19.60
2023-05-21T08:16:29.356Z,19.67
2023-05-21T08:17:32.805Z,19.73
2023-05-21T08:18:35.158Z,19.77
2023-05-21T08:19:38.271Z,19.82
2023-05-21T08:20:41.334Z,19.80
2023-05-21T08:21:45.304Z,19.70
2023-05-21T08:22:48.353Z,19.74
2023-05-21T08:23:53.974Z,19.77
2023-05-21T08:24:56.421Z,19.79
2023-05-21T08:25:59.362Z,19.84
2023-05-21T08:27:02.783Z,19.92
2023-05-21T08:28:07.960Z,19.97
2023-05-21T08:29:10.706Z,20.00
2023-05-21T08:30:14.592Z,20.07
2023-05-21T08:31:18.412Z,20.11
2023-05-21T08:32:21.444Z,20.14
2023-05-21T08:33:23.476Z,20.15
2023-05-21T08:34:26.647Z,20.11
2023-05-21T08:35:46.356Z,20.04
2023-05-21T08:36:56.207Z,19.97
2023-05-21T08:38:30.101Z,19.88
2023-05-21T08:39:32.393Z,19.86
2023-05-21T08:40:35.710Z,19.77
2023-05-21T08:41:39.704Z,19.77
2023-05-21T08:42:46.924Z,19.80
2023-05-21T08:43:57.340Z,19.82
2023-05-21T08:45:02.236Z,19.78
2023-05-21T08:46:05.295Z,19.84
2023-05-21T08:47:17.487Z,19.84
2023-05-21T08:48:22.371Z,19.83
2023-05-21T08:49:28.228Z,19.78
2023-05-21T08:50:32.843Z,19.77
2023-05-21T08:51:41.742Z,19.72
2023-05-21T08:52:44.754Z,19.74
2023-05-21T08:53:46.963Z,19.75
2023-05-21T08:54:53.359Z,19.68
2023-05-21T08:55:57.389Z,19.77
2023-05-21T08:57:06.397Z,19.85
2023-05-21T08:58:10.828Z,19.85
2023-05-21T08:59:14.917Z,19.87
2023-05-21T09:00:20.701Z,19.91
2023-05-21T09:01:24.875Z,19.97
2023-05-21T09:02:40.764Z,19.95
2023-05-21T09:03:43.877Z,19.99
2023-05-21T09:04:49.120Z,19.86
2023-05-21T09:05:51.931Z,19.93
2023-05-21T09:06:57.887Z,19.94
2023-05-21T09:08:21.120Z,20.00
2023-05-21T09:09:34.257Z,19.94
2023-05-21T09:10:39.742Z,19.87
2023-05-21T09:11:42.413Z,19.95
2023-05-21T09:12:45.768Z,19.85
2023-05-21T09:13:50.798Z,19.87
2023-05-21T09:15:01.387Z,19.90
2023-05-21T09:16:09.947Z,19.94
2023-05-21T09:17:14.993Z,19.97
2023-05-21T09:18:18.845Z,19.99
2023-05-21T09:19:39.042Z,19.91
2023-05-21T09:20:41.476Z,19.95
2023-05-21T09:21:44.892Z,19.83
2023-05-21T09:22:55.405Z,19.86
2023-05-21T09:23:58.618Z,19.88
2023-05-21T09:25:05.879Z,19.93
2023-05-21T09:26:11.953Z,19.99
2023-05-21T09:27:18.163Z,20.01
2023-05-21T09:28:21.741Z,20.02
2023-05-21T09:29:26.397Z,19.98
2023-05-21T09:30:31.155Z,19.85
2023-05-21T09:31:34.547Z,19.90
2023-05-21T09:32:37.737Z,19.90
2023-05-21T09:33:47.126Z,19.96
2023-05-21T09:34:50.952Z,19.97
2023-05-21T09:35:52.954Z,19.95
2023-05-21T09:36:57.887Z,19.88
2023-05-21T09:37:59.931Z,19.78
2023-05-21T09:39:03.379Z,19.85
2023-05-21T09:40:11.560Z,19.88
2023-05-21T09:41:15.914Z,19.91
2023-05-21T09:42:21.838Z,19.94
2023-05-21T09:43:24.978Z,19.94
2023-05-21T09:44:28.642Z,19.95
2023-05-21T09:45:35.315Z,19.98
2023-05-21T09:46:41.831Z,19.93
2023-05-21T09:47:46.758Z,20.00
2023-05-21T09:48:48.774Z,20.05
2023-05-21T09:49:54.284Z,20.06
2023-05-21T09:51:08.116Z,20.05
2023-05-21T09:52:11.151Z,20.03
2023-05-21T09:53:13.824Z,20.01
2023-05-21T09:54:16.827Z,19.99
2023-05-21T09:55:19.531Z,20.03
2023-05-21T09:56:24.365Z,20.04
2023-05-21T09:57:26.544Z,20.05
2023-05-21T09:58:30.333Z,20.07
2023-05-21T09:59:40.409Z,20.07
2023-05-21T10:00:43.608Z,20.07
2023-05-21T10:01:46.405Z,20.08
2023-05-21T10:02:50.706Z,20.19
2023-05-21T10:03:56.210Z,20.24
2023-05-21T10:05:00.606Z,20.27
2023-05-21T10:06:03.938Z,20.37
2023-05-21T10:07:06.894Z,20.46
2023-05-21T10:08:12.523Z,20.52
2023-05-21T10:09:18.891Z,20.53
2023-05-21T10:10:22.819Z,20.58
2023-05-21T10:11:27.431Z,20.58
2023-05-21T10:12:32.613Z,20.58
2023-05-21T10:13:39.007Z,20.57
2023-05-21T10:14:47.884Z,20.57
2023-05-21T10:15:56.732Z,20.65
2023-05-21T10:16:59.443Z,20.65
2023-05-21T10:18:02.850Z,20.63
2023-05-21T10:19:10.835Z,20.67
2023-05-21T10:20:14.081Z,20.66
2023-05-21T10:21:16.981Z,20.74
2023-05-21T10:22:20.080Z,20.78
2023-05-21T10:23:23.646Z,20.79
2023-05-21T10:24:27.349Z,20.79
2023-05-21T10:25:31.857Z,20.79
2023-05-21T10:26:34.419Z,20.79
2023-05-21T10:27:38.396Z,20.82
2023-05-21T10:28:41.326Z,20.82
2023-05-21T10:29:46.801Z,20.85
2023-05-21T10:30:48.995Z,20.85
2023-05-21T10:31:53.705Z,20.91
2023-05-21T10:32:57.029Z,20.99
2023-05-21T10:34:01.409Z,21.03
2023-05-21T10:35:04.752Z,21.05
2023-05-21T10:36:06.643Z,21.04
2023-05-21T10:37:10.401Z,21.06
2023-05-21T10:38:15.469Z,21.09
2023-05-21T10:39:20.921Z,21.07
2023-05-21T10:40:22.919Z,21.05
2023-05-21T10:41:29.024Z,21.02
2023-05-21T10:42:59.369Z,21.07
2023-05-21T10:44:12.127Z,21.06
2023-05-21T10:45:21.041Z,21.04
2023-05-21T10:46:59.224Z,21.15
2023-05-21T10:48:31.754Z,21.21
2023-05-21T10:49:47.092Z,21.13
2023-05-21T10:51:10.431Z,21.18
2023-05-21T10:52:26.144Z,21.16
2023-05-21T10:53:40.182Z,21.09
2023-05-21T10:54:58.072Z,21.12
2023-05-21T10:56:15.531Z,21.13
2023-05-21T10:57:33.999Z,21.13
2023-05-21T10:59:11.720Z,21.09
2023-05-21T11:00:18.120Z,21.08
2023-05-21T11:01:21.844Z,21.17
2023-05-21T11:02:26.730Z,21.20
2023-05-21T11:03:33.084Z,21.15
2023-05-21T11:04:40.084Z,21.21
2023-05-21T11:05:53.129Z,21.21
2023-05-21T11:06:56.362Z,21.21
2023-05-21T11:08:01.535Z,21.20
2023-05-21T11:09:13.477Z,21.29
2023-05-21T11:10:32.730Z,21.30
2023-05-21T11:11:42.867Z,21.31
2023-05-21T11:13:08.029Z,21.30
2023-05-21T11:14:39.226Z,21.23
2023-05-21T11:16:07.247Z,21.23
2023-05-21T11:17:14.708Z,21.19
2023-05-21T11:18:16.946Z,21.27
2023-05-21T11:19:20.364Z,21.38
2023-05-21T11:20:23.860Z,21.43
2023-05-21T11:21:30.647Z,21.43
2023-05-21T11:22:36.694Z,21.40
2023-05-21T11:23:49.044Z,21.39
2023-05-21T11:24:52.394Z,21.36
2023-05-21T11:26:01.349Z,21.36
2023-05-21T11:27:05.857Z,21.37
2023-05-21T11:28:09.654Z,21.34
2023-05-21T11:29:11.919Z,21.35
2023-05-21T11:30:17.427Z,21.34
2023-05-21T11:31:25.525Z,21.34
2023-05-21T11:32:29.817Z,21.32
2023-05-21T11:33:33.486Z,21.33
2023-05-21T11:34:41.825Z,21.38
2023-05-21T11:35:58.192Z,21.41
2023-05-21T11:37:27.586Z,21.37
2023-05-21T11:38:32.015Z,21.51
2023-05-21T11:39:40.298Z,21.60
2023-05-21T11:40:53.704Z,21.68
2023-05-21T11:41:58.109Z,21.87
2023-05-21T11:43:01.809Z,22.01
2023-05-21T11:44:08.433Z,22.12
2023-05-21T11:45:12.022Z,22.21
2023-05-21T11:46:14.388Z,22.12
2023-05-21T11:47:20.117Z,22.05
2023-05-21T11:48:27.681Z,21.98
2023-05-21T11:49:31.348Z,21.90
2023-05-21T11:50:35.365Z,21.86
2023-05-21T11:51:37.478Z,21.91
2023-05-21T11:52:41.876Z,21.90
2023-05-21T11:53:44.478Z,21.89
2023-05-21T11:54:50.606Z,21.86
2023-05-21T11:55:57.484Z,21.86
2023-05-21T11:57:01.073Z,21.81
2023-05-21T11:58:04.344Z,21.76
2023-05-21T11:59:16.087Z,21.74
2023-05-21T12:00:21.862Z,21.76
2023-05-21T12:01:24.105Z,21.83
2023-05-21T12:02:33.690Z,21.90
2023-05-21T12:03:36.816Z,21.97
2023-05-21T12:04:38.809Z,22.02
2023-05-21T12:05:46.182Z,22.03
2023-05-21T12:06:48.266Z,22.03
2023-05-21T12:07:51.253Z,21.94
2023-05-21T12:08:58.508Z,21.90
2023-05-21T12:10:01.995Z,21.88
2023-05-21T12:11:05.443Z,21.86
2023-05-21T12:12:09.676Z,21.83
2023-05-21T12:13:12.703Z,21.87
2023-05-21T12:14:14.891Z,22.03
2023-05-21T12:15:18.963Z,22.16
2023-05-21T12:16:21.043Z,22.20
2023-05-21T12:17:25.271Z,22.16
2023-05-21T12:18:28.548Z,22.12
2023-05-21T12:19:34.458Z,22.08
2023-05-21T12:20:37.633Z,22.00
2023-05-21T12:21:39.897Z,22.08
2023-05-21T12:22:44.125Z,22.23
2023-05-21T12:23:46.450Z,22.24
2023-05-21T12:24:49.508Z,22.19
2023-05-21T12:25:52.195Z,22.12
2023-05-21T12:26:59.198Z,22.11
2023-05-21T12:28:03.452Z,22.12
2023-05-21T12:29:07.417Z,22.05
2023-05-21T12:30:11.129Z,22.02
2023-05-21T12:31:15.399Z,22.02
2023-05-21T12:32:18.415Z,22.05
2023-05-21T12:33:21.704Z,22.04
2023-05-21T12:34:44.685Z,21.98
2023-05-21T12:35:46.971Z,21.95
2023-05-21T12:36:51.683Z,21.93
2023-05-21T12:37:54.911Z,21.90
2023-05-21T12:38:57.820Z,21.89
2023-05-21T12:40:02.239Z,21.86
2023-05-21T12:41:05.013Z,21.84
2023-05-21T12:42:08.410Z,21.81
2023-05-21T12:43:11.422Z,21.79
2023-05-21T12:44:14.954Z,21.77
2023-05-21T12:45:19.208Z,21.76
2023-05-21T12:46:23.454Z,21.83
2023-05-21T12:47:27.727Z,21.85
2023-05-21T12:48:29.715Z,22.02
2023-05-21T12:49:34.824Z,22.05
2023-05-21T12:50:42.273Z,22.03
2023-05-21T12:51:45.414Z,21.96
2023-05-21T12:52:48.426Z,21.93
2023-05-21T12:53:50.450Z,21.89
2023-05-21T12:54:56.297Z,21.86
2023-05-21T12:56:08.084Z,21.88
2023-05-21T12:57:14.583Z,21.90
2023-05-21T12:58:17.228Z,21.95
2023-05-21T12:59:20.204Z,22.00
2023-05-21T13:00:23.933Z,22.04
2023-05-21T13:01:26.915Z,22.07
2023-05-21T13:02:32.811Z,22.08
2023-05-21T13:03:35.084Z,22.11
2023-05-21T13:04:38.100Z,22.18
2023-05-21T13:05:43.055Z,22.26
2023-05-21T13:06:45.143Z,22.29
2023-05-21T13:07:48.287Z,22.30
2023-05-21T13:08:50.482Z,22.29
2023-05-21T13:09:53.499Z,22.28
2023-05-21T13:10:55.704Z,22.25
2023-05-21T13:11:58.714Z,22.20
2023-05-21T13:13:02.030Z,22.18
2023-05-21T13:14:04.103Z,22.17
2023-05-21T13:15:08.387Z,22.20
2023-05-21T13:16:10.434Z,22.20
2023-05-21T13:17:13.423Z,22.18
2023-05-21T13:18:16.837Z,22.19
2023-05-21T13:19:18.967Z,22.20
2023-05-21T13:20:23.791Z,22.18
2023-05-21T13:21:27.141Z,22.17
2023-05-21T13:22:30.062Z,22.15
2023-05-21T13:23:33.042Z,22.13
2023-05-21T13:24:34.978Z,22.23
2023-05-21T13:25:37.952Z,22.31
2023-05-21T13:26:39.887Z,22.34
2023-05-21T13:27:43.328Z,22.38
2023-05-21T13:28:45.295Z,22.40
2023-05-21T13:29:48.322Z,22.39
2023-05-21T13:30:52.886Z,22.39
2023-05-21T13:31:55.740Z,22.42
2023-05-21T13:32:57.844Z,22.44
2023-05-21T13:34:02.013Z,22.43
2023-05-21T13:35:04.758Z,22.41
2023-05-21T13:36:08.494Z,22.37
2023-05-21T13:37:11.803Z,22.38
2023-05-21T13:38:14.699Z,22.37
2023-05-21T13:39:16.678Z,22.41
2023-05-21T13:40:19.743Z,22.42
2023-05-21T13:41:22.205Z,22.43
2023-05-21T13:42:25.309Z,22.46
2023-05-21T13:43:27.227Z,22.46
2023-05-21T13:44:33.260Z,22.42
2023-05-21T13:45:36.196Z,22.36
2023-05-21T13:46:39.496Z,22.31
2023-05-21T13:47:43.365Z,22.29
2023-05-21T13:48:45.437Z,22.26
2023-05-21T13:49:48.446Z,22.25
2023-05-21T13:50:51.390Z,22.22
2023-05-21T13:51:53.385Z,22.20
2023-05-21T13:52:57.664Z,22.25